sensor_id;sensor_type;location;lat;lon;timestamp;P1;durP1;ratioP1;P2;durP2;ratioP2
74660;SDS011;63191;39.566;2.654;2023-12-20T00:01:26;9.20;;;3.80;;
74660;SDS011;63191;39.566;2.654;2023-12-20T00:03:51;9.60;;;3.30;;
74660;SDS011;63191;39.566;2.654;2023-12-20T00:06:17;9.20;;;3.20;;
74660;SDS011;63191;39.566;2.654;2023-12-20T00:08:42;10.50;;;3.30;;
74660;SDS011;63191;39.566;2.654;2023-12-20T00:11:09;9.50;;;3.30;;
74660;SDS011;63191;39.566;2.654;2023-12-20T00:13:34;9.40;;;3.40;;
74660;SDS011;63191;39.566;2.654;2023-12-20T00:16:00;8.30;;;3.30;;
74660;SDS011;63191;39.566;2.654;2023-12-20T00:18:25;10.00;;;3.30;;
74660;SDS011;63191;39.566;2.654;2023-12-20T00:20:51;8.60;;;3.40;;
74660;SDS011;63191;39.566;2.654;2023-12-20T00:23:17;9.40;;;3.10;;
74660;SDS011;63191;39.566;2.654;2023-12-20T00:25:43;7.50;;;2.80;;
74660;SDS011;63191;39.566;2.654;2023-12-20T00:28:08;6.60;;;2.40;;
74660;SDS011;63191;39.566;2.654;2023-12-20T00:30:34;7.80;;;3.10;;
74660;SDS011;63191;39.566;2.654;2023-12-20T00:32:59;8.40;;;3.10;;
74660;SDS011;63191;39.566;2.654;2023-12-20T00:35:25;9.20;;;3.30;;
74660;SDS011;63191;39.566;2.654;2023-12-20T00:37:50;9.40;;;3.10;;
74660;SDS011;63191;39.566;2.654;2023-12-20T00:40:16;10.50;;;3.10;;
74660;SDS011;63191;39.566;2.654;2023-12-20T00:42:41;8.60;;;3.10;;
74660;SDS011;63191;39.566;2.654;2023-12-20T00:45:07;9.20;;;3.50;;
74660;SDS011;63191;39.566;2.654;2023-12-20T00:47:33;9.20;;;3.00;;
74660;SDS011;63191;39.566;2.654;2023-12-20T00:49:58;8.10;;;2.70;;
74660;SDS011;63191;39.566;2.654;2023-12-20T00:52:24;8.30;;;2.70;;
74660;SDS011;63191;39.566;2.654;2023-12-20T00:54:50;7.60;;;2.40;;
74660;SDS011;63191;39.566;2.654;2023-12-20T00:57:16;8.90;;;2.30;;
74660;SDS011;63191;39.566;2.654;2023-12-20T00:59:41;7.00;;;2.00;;
74660;SDS011;63191;39.566;2.654;2023-12-20T01:02:07;5.70;;;1.50;;
74660;SDS011;63191;39.566;2.654;2023-12-20T01:04:34;5.30;;;1.40;;
74660;SDS011;63191;39.566;2.654;2023-12-20T01:06:59;5.50;;;1.80;;
74660;SDS011;63191;39.566;2.654;2023-12-20T01:09:25;6.60;;;1.90;;
74660;SDS011;63191;39.566;2.654;2023-12-20T01:11:52;5.60;;;1.40;;
74660;SDS011;63191;39.566;2.654;2023-12-20T01:14:18;5.20;;;1.40;;
74660;SDS011;63191;39.566;2.654;2023-12-20T01:16:44;4.40;;;1.20;;
74660;SDS011;63191;39.566;2.654;2023-12-20T01:19:09;7.90;;;2.00;;
74660;SDS011;63191;39.566;2.654;2023-12-20T01:21:35;7.40;;;2.10;;
74660;SDS011;63191;39.566;2.654;2023-12-20T01:24:00;8.40;;;2.00;;
74660;SDS011;63191;39.566;2.654;2023-12-20T01:26:26;9.80;;;2.30;;
74660;SDS011;63191;39.566;2.654;2023-12-20T01:28:51;9.60;;;2.30;;
74660;SDS011;63191;39.566;2.654;2023-12-20T01:31:17;8.70;;;2.40;;
74660;SDS011;63191;39.566;2.654;2023-12-20T01:33:42;7.70;;;2.30;;
74660;SDS011;63191;39.566;2.654;2023-12-20T01:36:08;9.60;;;2.50;;
74660;SDS011;63191;39.566;2.654;2023-12-20T01:38:33;7.50;;;2.50;;
74660;SDS011;63191;39.566;2.654;2023-12-20T01:40:59;7.80;;;2.00;;
74660;SDS011;63191;39.566;2.654;2023-12-20T01:43:25;6.80;;;1.70;;
74660;SDS011;63191;39.566;2.654;2023-12-20T01:45:50;5.70;;;1.60;;
74660;SDS011;63191;39.566;2.654;2023-12-20T01:48:18;5.30;;;1.20;;
74660;SDS011;63191;39.566;2.654;2023-12-20T01:50:45;3.90;;;1.00;;
74660;SDS011;63191;39.566;2.654;2023-12-20T01:53:11;5.50;;;1.10;;
74660;SDS011;63191;39.566;2.654;2023-12-20T01:55:40;4.00;;;0.80;;
74660;SDS011;63191;39.566;2.654;2023-12-20T01:58:07;3.50;;;0.80;;
74660;SDS011;63191;39.566;2.654;2023-12-20T02:00:33;2.60;;;0.60;;
74660;SDS011;63191;39.566;2.654;2023-12-20T02:03:00;3.60;;;0.70;;
74660;SDS011;63191;39.566;2.654;2023-12-20T02:05:27;4.70;;;0.90;;
74660;SDS011;63191;39.566;2.654;2023-12-20T02:07:53;2.30;;;0.60;;
74660;SDS011;63191;39.566;2.654;2023-12-20T02:10:19;3.10;;;0.50;;
74660;SDS011;63191;39.566;2.654;2023-12-20T02:12:44;1.90;;;0.40;;
74660;SDS011;63191;39.566;2.654;2023-12-20T02:15:11;3.00;;;0.60;;
74660;SDS011;63191;39.566;2.654;2023-12-20T02:17:36;4.00;;;0.80;;
74660;SDS011;63191;39.566;2.654;2023-12-20T02:20:04;3.10;;;0.60;;
74660;SDS011;63191;39.566;2.654;2023-12-20T02:22:30;4.00;;;0.60;;
74660;SDS011;63191;39.566;2.654;2023-12-20T02:24:56;3.20;;;0.50;;
74660;SDS011;63191;39.566;2.654;2023-12-20T02:27:22;3.60;;;0.80;;
74660;SDS011;63191;39.566;2.654;2023-12-20T02:29:48;4.20;;;0.70;;
74660;SDS011;63191;39.566;2.654;2023-12-20T02:32:16;4.10;;;0.70;;
74660;SDS011;63191;39.566;2.654;2023-12-20T02:34:42;2.10;;;0.40;;
74660;SDS011;63191;39.566;2.654;2023-12-20T02:37:08;4.20;;;0.60;;
74660;SDS011;63191;39.566;2.654;2023-12-20T02:39:33;2.90;;;0.60;;
74660;SDS011;63191;39.566;2.654;2023-12-20T02:41:59;4.10;;;0.50;;
74660;SDS011;63191;39.566;2.654;2023-12-20T02:44:25;3.30;;;0.40;;
74660;SDS011;63191;39.566;2.654;2023-12-20T02:46:50;3.20;;;0.40;;
74660;SDS011;63191;39.566;2.654;2023-12-20T02:49:17;4.60;;;0.60;;
74660;SDS011;63191;39.566;2.654;2023-12-20T02:51:42;2.40;;;0.60;;
74660;SDS011;63191;39.566;2.654;2023-12-20T02:54:09;2.60;;;0.50;;
74660;SDS011;63191;39.566;2.654;2023-12-20T02:56:34;4.00;;;0.50;;
74660;SDS011;63191;39.566;2.654;2023-12-20T02:59:00;2.40;;;0.50;;
74660;SDS011;63191;39.566;2.654;2023-12-20T03:01:26;3.50;;;0.60;;
74660;SDS011;63191;39.566;2.654;2023-12-20T03:03:52;3.70;;;0.60;;
74660;SDS011;63191;39.566;2.654;2023-12-20T03:06:18;4.30;;;0.90;;
74660;SDS011;63191;39.566;2.654;2023-12-20T03:08:44;4.30;;;1.20;;
74660;SDS011;63191;39.566;2.654;2023-12-20T03:11:10;4.20;;;0.90;;
74660;SDS011;63191;39.566;2.654;2023-12-20T03:13:36;4.00;;;0.70;;
74660;SDS011;63191;39.566;2.654;2023-12-20T03:16:07;4.20;;;1.20;;
74660;SDS011;63191;39.566;2.654;2023-12-20T03:18:36;4.80;;;1.10;;
74660;SDS011;63191;39.566;2.654;2023-12-20T03:21:02;4.20;;;1.00;;
74660;SDS011;63191;39.566;2.654;2023-12-20T03:23:29;3.70;;;0.80;;
74660;SDS011;63191;39.566;2.654;2023-12-20T03:25:55;4.30;;;1.00;;
74660;SDS011;63191;39.566;2.654;2023-12-20T03:28:21;4.50;;;1.00;;
74660;SDS011;63191;39.566;2.654;2023-12-20T03:30:48;6.90;;;1.40;;
74660;SDS011;63191;39.566;2.654;2023-12-20T03:33:14;4.60;;;1.20;;
74660;SDS011;63191;39.566;2.654;2023-12-20T03:35:40;5.50;;;1.10;;
74660;SDS011;63191;39.566;2.654;2023-12-20T03:38:05;5.40;;;1.20;;
74660;SDS011;63191;39.566;2.654;2023-12-20T03:43:53;4.60;;;1.30;;
74660;SDS011;63191;39.566;2.654;2023-12-20T03:46:18;6.30;;;2.10;;
74660;SDS011;63191;39.566;2.654;2023-12-20T03:48:44;6.00;;;1.20;;
74660;SDS011;63191;39.566;2.654;2023-12-20T03:51:09;4.70;;;1.00;;
74660;SDS011;63191;39.566;2.654;2023-12-20T03:53:35;5.20;;;1.00;;
74660;SDS011;63191;39.566;2.654;2023-12-20T03:56:00;5.30;;;1.20;;
74660;SDS011;63191;39.566;2.654;2023-12-20T03:58:26;4.70;;;1.30;;
74660;SDS011;63191;39.566;2.654;2023-12-20T04:00:52;5.40;;;1.40;;
74660;SDS011;63191;39.566;2.654;2023-12-20T04:03:17;3.90;;;0.90;;
74660;SDS011;63191;39.566;2.654;2023-12-20T04:05:44;3.20;;;0.80;;
74660;SDS011;63191;39.566;2.654;2023-12-20T04:08:10;4.10;;;0.60;;
74660;SDS011;63191;39.566;2.654;2023-12-20T04:10:36;2.50;;;0.50;;
74660;SDS011;63191;39.566;2.654;2023-12-20T04:13:02;2.60;;;0.80;;
74660;SDS011;63191;39.566;2.654;2023-12-20T04:15:28;4.40;;;0.90;;
74660;SDS011;63191;39.566;2.654;2023-12-20T04:17:54;3.00;;;0.60;;
74660;SDS011;63191;39.566;2.654;2023-12-20T04:20:20;2.90;;;0.50;;
74660;SDS011;63191;39.566;2.654;2023-12-20T04:22:45;2.90;;;0.60;;
74660;SDS011;63191;39.566;2.654;2023-12-20T04:25:11;2.20;;;0.50;;
74660;SDS011;63191;39.566;2.654;2023-12-20T04:27:36;2.60;;;0.60;;
74660;SDS011;63191;39.566;2.654;2023-12-20T04:30:02;3.30;;;0.40;;
74660;SDS011;63191;39.566;2.654;2023-12-20T04:32:28;3.10;;;0.60;;
74660;SDS011;63191;39.566;2.654;2023-12-20T04:34:54;2.40;;;0.50;;
74660;SDS011;63191;39.566;2.654;2023-12-20T04:37:19;2.70;;;0.40;;
74660;SDS011;63191;39.566;2.654;2023-12-20T04:39:45;3.10;;;0.50;;
74660;SDS011;63191;39.566;2.654;2023-12-20T04:42:10;4.00;;;0.50;;
74660;SDS011;63191;39.566;2.654;2023-12-20T04:44:36;3.40;;;0.60;;
74660;SDS011;63191;39.566;2.654;2023-12-20T04:47:01;2.60;;;0.50;;
74660;SDS011;63191;39.566;2.654;2023-12-20T04:49:28;2.60;;;0.60;;
74660;SDS011;63191;39.566;2.654;2023-12-20T04:51:53;6.00;;;0.40;;
74660;SDS011;63191;39.566;2.654;2023-12-20T04:54:19;4.00;;;0.60;;
74660;SDS011;63191;39.566;2.654;2023-12-20T04:56:44;3.50;;;0.80;;
74660;SDS011;63191;39.566;2.654;2023-12-20T04:59:10;3.80;;;0.80;;
74660;SDS011;63191;39.566;2.654;2023-12-20T05:01:35;4.00;;;0.80;;
74660;SDS011;63191;39.566;2.654;2023-12-20T05:04:01;5.80;;;0.90;;
74660;SDS011;63191;39.566;2.654;2023-12-20T05:06:26;3.60;;;0.70;;
74660;SDS011;63191;39.566;2.654;2023-12-20T05:08:52;4.40;;;0.70;;
74660;SDS011;63191;39.566;2.654;2023-12-20T05:11:19;3.60;;;0.80;;
74660;SDS011;63191;39.566;2.654;2023-12-20T05:13:44;4.90;;;1.00;;
74660;SDS011;63191;39.566;2.654;2023-12-20T05:16:09;7.40;;;1.80;;
74660;SDS011;63191;39.566;2.654;2023-12-20T05:18:35;5.00;;;1.40;;
74660;SDS011;63191;39.566;2.654;2023-12-20T05:21:01;5.50;;;0.90;;
74660;SDS011;63191;39.566;2.654;2023-12-20T05:23:26;4.80;;;1.20;;
74660;SDS011;63191;39.566;2.654;2023-12-20T05:25:52;6.70;;;1.20;;
74660;SDS011;63191;39.566;2.654;2023-12-20T05:28:17;5.70;;;1.20;;
74660;SDS011;63191;39.566;2.654;2023-12-20T05:30:43;4.50;;;1.00;;
74660;SDS011;63191;39.566;2.654;2023-12-20T05:33:08;4.10;;;0.70;;
74660;SDS011;63191;39.566;2.654;2023-12-20T05:35:34;6.50;;;1.10;;
74660;SDS011;63191;39.566;2.654;2023-12-20T05:38:00;5.60;;;1.10;;
74660;SDS011;63191;39.566;2.654;2023-12-20T05:40:25;5.70;;;1.00;;
74660;SDS011;63191;39.566;2.654;2023-12-20T05:42:51;5.10;;;1.00;;
74660;SDS011;63191;39.566;2.654;2023-12-20T05:45:16;4.70;;;0.80;;
74660;SDS011;63191;39.566;2.654;2023-12-20T05:47:42;3.60;;;0.90;;
74660;SDS011;63191;39.566;2.654;2023-12-20T05:50:07;3.80;;;0.90;;
74660;SDS011;63191;39.566;2.654;2023-12-20T05:52:34;4.90;;;1.00;;
74660;SDS011;63191;39.566;2.654;2023-12-20T05:54:59;4.40;;;0.90;;
74660;SDS011;63191;39.566;2.654;2023-12-20T05:57:26;7.20;;;1.10;;
74660;SDS011;63191;39.566;2.654;2023-12-20T05:59:52;4.20;;;1.20;;
74660;SDS011;63191;39.566;2.654;2023-12-20T06:02:18;6.60;;;1.20;;
74660;SDS011;63191;39.566;2.654;2023-12-20T06:04:43;8.10;;;1.10;;
74660;SDS011;63191;39.566;2.654;2023-12-20T06:07:12;7.40;;;1.50;;
74660;SDS011;63191;39.566;2.654;2023-12-20T06:09:39;5.00;;;0.90;;
74660;SDS011;63191;39.566;2.654;2023-12-20T06:12:05;5.80;;;1.20;;
74660;SDS011;63191;39.566;2.654;2023-12-20T06:14:32;5.70;;;1.20;;
74660;SDS011;63191;39.566;2.654;2023-12-20T06:16:57;5.40;;;1.20;;
74660;SDS011;63191;39.566;2.654;2023-12-20T06:19:23;6.40;;;1.10;;
74660;SDS011;63191;39.566;2.654;2023-12-20T06:21:48;8.30;;;1.30;;
74660;SDS011;63191;39.566;2.654;2023-12-20T06:24:15;4.50;;;1.00;;
74660;SDS011;63191;39.566;2.654;2023-12-20T06:26:41;4.60;;;1.10;;
74660;SDS011;63191;39.566;2.654;2023-12-20T06:29:06;5.00;;;1.10;;
74660;SDS011;63191;39.566;2.654;2023-12-20T06:31:32;6.40;;;1.20;;
74660;SDS011;63191;39.566;2.654;2023-12-20T06:33:58;5.70;;;1.40;;
74660;SDS011;63191;39.566;2.654;2023-12-20T06:36:25;5.30;;;1.40;;
74660;SDS011;63191;39.566;2.654;2023-12-20T06:38:53;4.70;;;1.10;;
74660;SDS011;63191;39.566;2.654;2023-12-20T06:41:19;6.90;;;1.40;;
74660;SDS011;63191;39.566;2.654;2023-12-20T06:43:45;4.70;;;1.30;;
74660;SDS011;63191;39.566;2.654;2023-12-20T06:46:10;4.70;;;1.20;;
74660;SDS011;63191;39.566;2.654;2023-12-20T06:48:38;4.80;;;1.20;;
74660;SDS011;63191;39.566;2.654;2023-12-20T06:51:04;6.80;;;1.30;;
74660;SDS011;63191;39.566;2.654;2023-12-20T06:53:30;4.90;;;1.20;;
74660;SDS011;63191;39.566;2.654;2023-12-20T06:55:55;4.50;;;1.10;;
74660;SDS011;63191;39.566;2.654;2023-12-20T06:58:22;4.40;;;1.20;;
74660;SDS011;63191;39.566;2.654;2023-12-20T07:00:48;5.80;;;1.40;;
74660;SDS011;63191;39.566;2.654;2023-12-20T07:03:13;7.10;;;1.40;;
74660;SDS011;63191;39.566;2.654;2023-12-20T07:05:39;4.80;;;1.10;;
74660;SDS011;63191;39.566;2.654;2023-12-20T07:08:06;7.70;;;1.20;;
74660;SDS011;63191;39.566;2.654;2023-12-20T07:10:32;6.80;;;1.10;;
74660;SDS011;63191;39.566;2.654;2023-12-20T07:12:57;6.30;;;1.30;;
74660;SDS011;63191;39.566;2.654;2023-12-20T07:15:23;4.90;;;1.10;;
74660;SDS011;63191;39.566;2.654;2023-12-20T07:17:48;4.80;;;1.00;;
74660;SDS011;63191;39.566;2.654;2023-12-20T07:20:14;6.50;;;1.40;;
74660;SDS011;63191;39.566;2.654;2023-12-20T07:22:40;7.00;;;1.40;;
74660;SDS011;63191;39.566;2.654;2023-12-20T07:25:06;7.70;;;1.40;;
74660;SDS011;63191;39.566;2.654;2023-12-20T07:27:32;5.00;;;1.10;;
74660;SDS011;63191;39.566;2.654;2023-12-20T07:29:58;7.60;;;1.50;;
74660;SDS011;63191;39.566;2.654;2023-12-20T07:32:24;10.30;;;1.30;;
74660;SDS011;63191;39.566;2.654;2023-12-20T07:34:49;6.20;;;1.20;;
74660;SDS011;63191;39.566;2.654;2023-12-20T07:37:15;6.50;;;1.10;;
74660;SDS011;63191;39.566;2.654;2023-12-20T07:39:41;9.60;;;1.40;;
74660;SDS011;63191;39.566;2.654;2023-12-20T07:42:07;5.20;;;1.00;;
74660;SDS011;63191;39.566;2.654;2023-12-20T07:44:33;11.60;;;1.30;;
74660;SDS011;63191;39.566;2.654;2023-12-20T07:47:01;6.10;;;1.30;;
74660;SDS011;63191;39.566;2.654;2023-12-20T07:49:26;7.60;;;1.20;;
74660;SDS011;63191;39.566;2.654;2023-12-20T07:51:52;7.10;;;1.30;;
74660;SDS011;63191;39.566;2.654;2023-12-20T07:54:18;16.70;;;3.30;;
74660;SDS011;63191;39.566;2.654;2023-12-20T07:56:43;9.80;;;1.70;;
74660;SDS011;63191;39.566;2.654;2023-12-20T07:59:08;8.20;;;1.50;;
74660;SDS011;63191;39.566;2.654;2023-12-20T08:01:34;7.20;;;1.50;;
74660;SDS011;63191;39.566;2.654;2023-12-20T08:03:59;12.00;;;1.70;;
74660;SDS011;63191;39.566;2.654;2023-12-20T08:06:25;11.00;;;2.40;;
74660;SDS011;63191;39.566;2.654;2023-12-20T08:08:50;8.90;;;1.60;;
74660;SDS011;63191;39.566;2.654;2023-12-20T08:11:16;11.00;;;1.70;;
74660;SDS011;63191;39.566;2.654;2023-12-20T08:13:42;7.90;;;1.70;;
74660;SDS011;63191;39.566;2.654;2023-12-20T08:16:08;10.20;;;1.70;;
74660;SDS011;63191;39.566;2.654;2023-12-20T08:18:34;6.70;;;1.50;;
74660;SDS011;63191;39.566;2.654;2023-12-20T08:20:59;6.40;;;1.50;;
74660;SDS011;63191;39.566;2.654;2023-12-20T08:23:26;6.40;;;2.00;;
74660;SDS011;63191;39.566;2.654;2023-12-20T08:25:52;9.50;;;2.40;;
74660;SDS011;63191;39.566;2.654;2023-12-20T08:28:17;7.60;;;2.00;;
74660;SDS011;63191;39.566;2.654;2023-12-20T08:30:43;7.80;;;2.20;;
74660;SDS011;63191;39.566;2.654;2023-12-20T08:33:08;11.60;;;3.10;;
74660;SDS011;63191;39.566;2.654;2023-12-20T08:35:38;9.80;;;2.50;;
74660;SDS011;63191;39.566;2.654;2023-12-20T08:38:05;14.80;;;2.70;;
74660;SDS011;63191;39.566;2.654;2023-12-20T08:40:30;8.70;;;2.60;;
74660;SDS011;63191;39.566;2.654;2023-12-20T08:42:56;10.20;;;2.60;;
74660;SDS011;63191;39.566;2.654;2023-12-20T08:45:21;12.90;;;2.80;;
74660;SDS011;63191;39.566;2.654;2023-12-20T08:47:47;11.10;;;2.80;;
74660;SDS011;63191;39.566;2.654;2023-12-20T08:50:12;12.60;;;3.20;;
74660;SDS011;63191;39.566;2.654;2023-12-20T08:52:38;11.70;;;3.30;;
74660;SDS011;63191;39.566;2.654;2023-12-20T08:55:04;9.70;;;2.70;;
74660;SDS011;63191;39.566;2.654;2023-12-20T08:57:30;10.20;;;2.60;;
74660;SDS011;63191;39.566;2.654;2023-12-20T08:59:57;8.20;;;2.70;;
74660;SDS011;63191;39.566;2.654;2023-12-20T09:02:23;11.70;;;2.50;;
74660;SDS011;63191;39.566;2.654;2023-12-20T09:04:48;9.60;;;2.60;;
74660;SDS011;63191;39.566;2.654;2023-12-20T09:07:23;9.50;;;2.50;;
74660;SDS011;63191;39.566;2.654;2023-12-20T09:09:52;14.60;;;4.50;;
74660;SDS011;63191;39.566;2.654;2023-12-20T09:12:18;12.20;;;4.30;;
74660;SDS011;63191;39.566;2.654;2023-12-20T09:14:45;12.20;;;4.80;;
74660;SDS011;63191;39.566;2.654;2023-12-20T09:17:11;13.40;;;4.20;;
74660;SDS011;63191;39.566;2.654;2023-12-20T09:19:37;10.80;;;3.80;;
74660;SDS011;63191;39.566;2.654;2023-12-20T09:22:03;8.90;;;3.00;;
74660;SDS011;63191;39.566;2.654;2023-12-20T09:24:30;10.70;;;3.40;;
74660;SDS011;63191;39.566;2.654;2023-12-20T09:26:56;10.70;;;3.40;;
74660;SDS011;63191;39.566;2.654;2023-12-20T09:29:21;10.90;;;3.70;;
74660;SDS011;63191;39.566;2.654;2023-12-20T09:31:46;11.80;;;3.60;;
74660;SDS011;63191;39.566;2.654;2023-12-20T09:34:14;10.80;;;3.50;;
74660;SDS011;63191;39.566;2.654;2023-12-20T09:36:40;10.00;;;3.00;;
74660;SDS011;63191;39.566;2.654;2023-12-20T09:39:11;11.90;;;2.50;;
74660;SDS011;63191;39.566;2.654;2023-12-20T09:41:45;10.80;;;2.70;;
74660;SDS011;63191;39.566;2.654;2023-12-20T09:44:18;7.60;;;2.00;;
74660;SDS011;63191;39.566;2.654;2023-12-20T09:46:44;9.40;;;2.30;;
74660;SDS011;63191;39.566;2.654;2023-12-20T09:49:11;8.30;;;1.80;;
74660;SDS011;63191;39.566;2.654;2023-12-20T09:51:37;7.20;;;2.10;;
74660;SDS011;63191;39.566;2.654;2023-12-20T09:54:03;6.50;;;1.90;;
74660;SDS011;63191;39.566;2.654;2023-12-20T09:56:30;6.00;;;1.90;;
74660;SDS011;63191;39.566;2.654;2023-12-20T09:58:56;8.00;;;2.10;;
74660;SDS011;63191;39.566;2.654;2023-12-20T10:01:21;10.40;;;2.20;;
74660;SDS011;63191;39.566;2.654;2023-12-20T10:03:48;9.60;;;2.70;;
74660;SDS011;63191;39.566;2.654;2023-12-20T10:06:16;8.80;;;2.20;;
74660;SDS011;63191;39.566;2.654;2023-12-20T10:08:42;8.80;;;2.50;;
74660;SDS011;63191;39.566;2.654;2023-12-20T10:11:07;7.00;;;2.30;;
74660;SDS011;63191;39.566;2.654;2023-12-20T10:13:33;12.30;;;3.50;;
74660;SDS011;63191;39.566;2.654;2023-12-20T10:15:59;9.60;;;3.00;;
74660;SDS011;63191;39.566;2.654;2023-12-20T10:18:24;10.50;;;3.50;;
74660;SDS011;63191;39.566;2.654;2023-12-20T10:20:50;8.10;;;2.50;;
74660;SDS011;63191;39.566;2.654;2023-12-20T10:23:15;7.00;;;2.30;;
74660;SDS011;63191;39.566;2.654;2023-12-20T10:25:42;9.70;;;2.60;;
74660;SDS011;63191;39.566;2.654;2023-12-20T10:28:14;8.00;;;2.70;;
74660;SDS011;63191;39.566;2.654;2023-12-20T10:30:48;8.60;;;2.50;;
74660;SDS011;63191;39.566;2.654;2023-12-20T10:33:15;8.10;;;2.00;;
74660;SDS011;63191;39.566;2.654;2023-12-20T10:35:52;6.00;;;2.10;;
74660;SDS011;63191;39.566;2.654;2023-12-20T10:38:18;7.90;;;2.00;;
74660;SDS011;63191;39.566;2.654;2023-12-20T10:40:43;7.50;;;2.40;;
74660;SDS011;63191;39.566;2.654;2023-12-20T10:43:10;6.80;;;2.20;;
74660;SDS011;63191;39.566;2.654;2023-12-20T10:45:36;7.00;;;2.70;;
74660;SDS011;63191;39.566;2.654;2023-12-20T10:48:02;7.10;;;2.50;;
74660;SDS011;63191;39.566;2.654;2023-12-20T10:50:28;7.40;;;2.50;;
74660;SDS011;63191;39.566;2.654;2023-12-20T10:52:56;7.20;;;2.40;;
74660;SDS011;63191;39.566;2.654;2023-12-20T10:55:22;8.50;;;3.10;;
74660;SDS011;63191;39.566;2.654;2023-12-20T10:57:49;11.10;;;2.80;;
74660;SDS011;63191;39.566;2.654;2023-12-20T11:00:17;6.80;;;2.90;;
74660;SDS011;63191;39.566;2.654;2023-12-20T11:02:43;9.40;;;4.30;;
74660;SDS011;63191;39.566;2.654;2023-12-20T11:05:11;21.90;;;6.50;;
74660;SDS011;63191;39.566;2.654;2023-12-20T11:10:43;7.70;;;2.80;;
74660;SDS011;63191;39.566;2.654;2023-12-20T11:13:20;5.80;;;2.10;;
74660;SDS011;63191;39.566;2.654;2023-12-20T11:16:10;6.90;;;2.40;;
74660;SDS011;63191;39.566;2.654;2023-12-20T11:18:36;7.30;;;2.30;;
74660;SDS011;63191;39.566;2.654;2023-12-20T11:21:04;6.60;;;2.00;;
74660;SDS011;63191;39.566;2.654;2023-12-20T11:23:30;7.00;;;2.60;;
74660;SDS011;63191;39.566;2.654;2023-12-20T11:25:59;5.60;;;1.80;;
74660;SDS011;63191;39.566;2.654;2023-12-20T11:28:25;5.40;;;1.60;;
74660;SDS011;63191;39.566;2.654;2023-12-20T11:33:21;7.70;;;1.70;;
74660;SDS011;63191;39.566;2.654;2023-12-20T11:35:48;6.40;;;2.10;;
74660;SDS011;63191;39.566;2.654;2023-12-20T11:38:14;7.60;;;2.00;;
74660;SDS011;63191;39.566;2.654;2023-12-20T11:40:41;7.60;;;1.70;;
74660;SDS011;63191;39.566;2.654;2023-12-20T11:43:07;10.00;;;2.10;;
74660;SDS011;63191;39.566;2.654;2023-12-20T11:45:33;8.50;;;2.90;;
74660;SDS011;63191;39.566;2.654;2023-12-20T11:48:00;9.30;;;1.90;;
74660;SDS011;63191;39.566;2.654;2023-12-20T11:50:27;6.90;;;1.80;;
74660;SDS011;63191;39.566;2.654;2023-12-20T11:52:53;7.60;;;1.60;;
74660;SDS011;63191;39.566;2.654;2023-12-20T11:55:21;6.60;;;1.60;;
74660;SDS011;63191;39.566;2.654;2023-12-20T11:57:46;7.20;;;1.90;;
74660;SDS011;63191;39.566;2.654;2023-12-20T12:00:13;9.40;;;1.90;;
74660;SDS011;63191;39.566;2.654;2023-12-20T12:02:39;6.10;;;1.50;;
74660;SDS011;63191;39.566;2.654;2023-12-20T12:05:05;5.50;;;1.30;;
74660;SDS011;63191;39.566;2.654;2023-12-20T12:07:32;5.10;;;1.30;;
74660;SDS011;63191;39.566;2.654;2023-12-20T12:09:58;6.70;;;1.20;;
74660;SDS011;63191;39.566;2.654;2023-12-20T12:12:24;5.60;;;0.90;;
74660;SDS011;63191;39.566;2.654;2023-12-20T12:14:52;5.70;;;1.40;;
74660;SDS011;63191;39.566;2.654;2023-12-20T12:17:18;6.70;;;1.40;;
74660;SDS011;63191;39.566;2.654;2023-12-20T12:19:44;5.80;;;1.20;;
74660;SDS011;63191;39.566;2.654;2023-12-20T12:22:13;7.30;;;1.20;;
74660;SDS011;63191;39.566;2.654;2023-12-20T12:24:41;6.20;;;1.30;;
74660;SDS011;63191;39.566;2.654;2023-12-20T12:27:07;7.00;;;1.30;;
74660;SDS011;63191;39.566;2.654;2023-12-20T12:29:33;6.50;;;1.30;;
74660;SDS011;63191;39.566;2.654;2023-12-20T12:31:59;5.00;;;1.10;;
74660;SDS011;63191;39.566;2.654;2023-12-20T12:34:28;6.80;;;1.50;;
74660;SDS011;63191;39.566;2.654;2023-12-20T12:36:54;4.50;;;1.40;;
74660;SDS011;63191;39.566;2.654;2023-12-20T12:39:19;6.20;;;1.60;;
74660;SDS011;63191;39.566;2.654;2023-12-20T12:41:45;5.90;;;1.50;;
74660;SDS011;63191;39.566;2.654;2023-12-20T12:44:10;4.70;;;1.40;;
74660;SDS011;63191;39.566;2.654;2023-12-20T12:46:36;6.20;;;1.60;;
74660;SDS011;63191;39.566;2.654;2023-12-20T12:49:02;6.30;;;1.90;;
74660;SDS011;63191;39.566;2.654;2023-12-20T12:51:27;6.90;;;1.50;;
74660;SDS011;63191;39.566;2.654;2023-12-20T12:53:53;5.90;;;1.50;;
74660;SDS011;63191;39.566;2.654;2023-12-20T12:56:18;7.30;;;1.30;;
74660;SDS011;63191;39.566;2.654;2023-12-20T12:58:44;5.50;;;1.30;;
74660;SDS011;63191;39.566;2.654;2023-12-20T13:01:10;4.40;;;1.30;;
74660;SDS011;63191;39.566;2.654;2023-12-20T13:03:36;5.10;;;1.30;;
74660;SDS011;63191;39.566;2.654;2023-12-20T13:06:01;5.00;;;1.20;;
74660;SDS011;63191;39.566;2.654;2023-12-20T13:08:28;10.20;;;1.80;;
74660;SDS011;63191;39.566;2.654;2023-12-20T13:10:54;6.90;;;1.30;;
74660;SDS011;63191;39.566;2.654;2023-12-20T13:13:20;6.00;;;1.30;;
74660;SDS011;63191;39.566;2.654;2023-12-20T13:15:46;5.20;;;1.10;;
74660;SDS011;63191;39.566;2.654;2023-12-20T13:18:16;5.80;;;1.10;;
74660;SDS011;63191;39.566;2.654;2023-12-20T13:20:44;6.90;;;1.40;;
74660;SDS011;63191;39.566;2.654;2023-12-20T13:23:09;5.70;;;1.20;;
74660;SDS011;63191;39.566;2.654;2023-12-20T13:25:35;4.90;;;1.10;;
74660;SDS011;63191;39.566;2.654;2023-12-20T13:28:01;6.50;;;1.30;;
74660;SDS011;63191;39.566;2.654;2023-12-20T13:30:28;6.50;;;1.50;;
74660;SDS011;63191;39.566;2.654;2023-12-20T13:32:53;4.80;;;1.00;;
74660;SDS011;63191;39.566;2.654;2023-12-20T13:35:19;5.60;;;1.00;;
74660;SDS011;63191;39.566;2.654;2023-12-20T13:37:45;4.50;;;1.10;;
74660;SDS011;63191;39.566;2.654;2023-12-20T13:40:11;7.90;;;1.30;;
74660;SDS011;63191;39.566;2.654;2023-12-20T13:42:37;4.90;;;1.40;;
74660;SDS011;63191;39.566;2.654;2023-12-20T13:45:03;5.50;;;1.20;;
74660;SDS011;63191;39.566;2.654;2023-12-20T13:47:30;4.60;;;0.90;;
74660;SDS011;63191;39.566;2.654;2023-12-20T13:49:56;4.80;;;1.00;;
74660;SDS011;63191;39.566;2.654;2023-12-20T13:52:21;5.80;;;1.10;;
74660;SDS011;63191;39.566;2.654;2023-12-20T13:54:47;6.20;;;1.10;;
74660;SDS011;63191;39.566;2.654;2023-12-20T13:57:12;5.00;;;0.90;;
74660;SDS011;63191;39.566;2.654;2023-12-20T13:59:38;7.60;;;1.20;;
74660;SDS011;63191;39.566;2.654;2023-12-20T14:02:04;4.10;;;1.10;;
74660;SDS011;63191;39.566;2.654;2023-12-20T14:04:30;4.50;;;1.20;;
74660;SDS011;63191;39.566;2.654;2023-12-20T14:06:56;6.50;;;1.40;;
74660;SDS011;63191;39.566;2.654;2023-12-20T14:09:22;5.30;;;1.50;;
74660;SDS011;63191;39.566;2.654;2023-12-20T14:11:48;7.80;;;1.60;;
74660;SDS011;63191;39.566;2.654;2023-12-20T14:14:13;6.00;;;1.40;;
74660;SDS011;63191;39.566;2.654;2023-12-20T14:16:39;5.10;;;1.50;;
74660;SDS011;63191;39.566;2.654;2023-12-20T14:19:04;5.60;;;1.50;;
74660;SDS011;63191;39.566;2.654;2023-12-20T14:21:32;5.80;;;1.70;;
74660;SDS011;63191;39.566;2.654;2023-12-20T14:23:58;9.40;;;2.20;;
74660;SDS011;63191;39.566;2.654;2023-12-20T14:26:25;9.60;;;2.30;;
74660;SDS011;63191;39.566;2.654;2023-12-20T14:28:52;8.30;;;2.00;;
74660;SDS011;63191;39.566;2.654;2023-12-20T14:31:18;7.70;;;2.20;;
74660;SDS011;63191;39.566;2.654;2023-12-20T14:33:44;7.40;;;2.60;;
74660;SDS011;63191;39.566;2.654;2023-12-20T14:36:11;8.30;;;2.70;;
74660;SDS011;63191;39.566;2.654;2023-12-20T14:38:36;9.50;;;2.90;;
74660;SDS011;63191;39.566;2.654;2023-12-20T14:41:02;8.20;;;3.30;;
74660;SDS011;63191;39.566;2.654;2023-12-20T14:43:31;8.80;;;3.60;;
74660;SDS011;63191;39.566;2.654;2023-12-20T14:45:56;9.00;;;3.00;;
74660;SDS011;63191;39.566;2.654;2023-12-20T14:48:21;9.00;;;3.20;;